Time;durP1;ratioP1;P1;durP2;ratioP2;P2;SDS_P1;SDS_P2;PMS_P1;PMS_P2;Temp;Humidity;BMP_temperature;BMP_pressure;BME280_temperature;BME280_humidity;BME280_pressure;Samples;Min_cycle;Max_cycle;Signal;HPM_P1;HPM_P2
2022/10/15 00:00:05;;;;;;;562.27;193.57;;;;;;;14.31;96.69;99901.88;334314;29;923;-73
2022/10/15 00:00:15;;;;;;;559.58;192.23;;;;;;;14.29;96.77;99898.50;331288;29;1696;-73
2022/10/15 00:00:26;;;;;;;559.07;190.43;;;;;;;14.29;96.84;99902.94;332992;29;1212;-73
2022/10/15 00:00:36;;;;;;;560.10;191.05;;;;;;;14.26;97.08;99901.31;331673;29;1919;-73
2022/10/15 00:00:47;;;;;;;559.53;190.47;;;;;;;14.28;97.10;99906.50;329550;29;1871;-73
2022/10/15 00:01:07;;;;;;;561.87;190.17;;;;;;;14.28;97.39;99904.72;329605;29;1422;-73
2022/10/15 00:01:18;;;;;;;562.33;188.07;;;;;;;14.29;97.23;99898.50;326383;29;2224;-74
2022/10/15 00:01:28;;;;;;;562.10;192.80;;;;;;;14.30;97.13;99902.81;327285;30;1450;-73
2022/10/15 00:01:38;;;;;;;562.22;195.55;;;;;;;14.31;96.94;99901.88;325533;30;1741;-73
2022/10/15 00:01:49;;;;;;;558.23;192.30;;;;;;;14.31;97.12;99907.16;326940;30;1416;-73
2022/10/15 00:01:59;;;;;;;556.90;188.95;;;;;;;14.31;97.04;99901.88;328696;29;1303;-73
2022/10/15 00:02:10;;;;;;;556.47;188.77;;;;;;;14.30;96.86;99900.19;326782;29;4661;-75
2022/10/15 00:02:20;;;;;;;558.78;191.07;;;;;;;14.31;97.11;99901.88;327118;29;3178;-75
2022/10/15 00:02:30;;;;;;;562.30;194.87;;;;;;;14.31;96.91;99904.53;326753;29;2020;-74
2022/10/15 00:02:41;;;;;;;564.40;201.03;;;;;;;14.30;97.03;99905.44;326299;29;2815;-74
2022/10/15 00:02:51;;;;;;;566.83;200.45;;;;;;;14.30;96.87;99909.88;325166;30;2563;-74
2022/10/15 00:03:02;;;;;;;564.57;197.70;;;;;;;14.30;96.98;99904.59;325214;30;2530;-74
2022/10/15 00:03:13;;;;;;;562.47;193.05;;;;;;;14.29;96.86;99903.78;324455;30;1575;-74
2022/10/15 00:03:23;;;;;;;561.28;192.82;;;;;;;14.30;97.09;99909.88;321549;30;2790;-74
2022/10/15 00:03:37;;;;;;;561.67;192.90;;;;;;;14.28;97.04;99902.09;324428;30;2780;-74
2022/10/15 00:03:48;;;;;;;560.58;194.10;;;;;;;14.28;97.09;99899.44;327804;29;1797;-74
2022/10/15 00:03:59;;;;;;;561.10;194.37;;;;;;;14.27;97.13;99900.38;328348;29;1278;-74
2022/10/15 00:04:09;;;;;;;560.97;194.00;;;;;;;14.29;97.08;99903.78;320671;30;1576;-74
2022/10/15 00:04:19;;;;;;;561.72;192.57;;;;;;;14.30;96.96;99901.97;322468;30;2121;-74
2022/10/15 00:04:30;;;;;;;562.30;193.27;;;;;;;14.29;97.10;99903.78;322833;30;2943;-73
2022/10/15 00:04:40;;;;;;;560.78;192.55;;;;;;;14.29;97.07;99906.41;322142;30;938;-74
2022/10/15 00:04:51;;;;;;;561.53;192.53;;;;;;;14.29;97.06;99903.78;319876;30;3817;-75
2022/10/15 00:05:01;;;;;;;560.17;193.07;;;;;;;14.27;97.13;99903.00;316658;30;3397;-74
2022/10/15 00:05:12;;;;;;;560.17;194.40;;;;;;;14.25;97.27;99902.22;317128;31;826;-74
2022/10/15 00:05:22;;;;;;;559.83;194.82;;;;;;;14.26;97.29;99903.94;316680;30;3398;-74
2022/10/15 00:05:38;;;;;;;560.60;193.80;;;;;;;14.26;97.50;99898.69;314293;31;3293;-73
2022/10/15 00:05:49;;;;;;;559.83;190.43;;;;;;;14.27;97.20;99905.63;314481;31;3367;-73
2022/10/15 00:06:03;;;;;;;564.03;191.00;;;;;;;14.26;97.28;99903.94;314108;31;2572;-74
2022/10/15 00:06:15;;;;;;;564.42;192.73;;;;;;;14.26;97.25;99898.69;310795;31;1432;-75
2022/10/15 00:06:25;;;;;;;562.28;192.15;;;;;;;14.27;97.46;99905.63;305595;32;1303;-73
2022/10/15 00:06:36;;;;;;;559.43;194.60;;;;;;;14.26;97.32;99903.09;309151;31;3722;-74
2022/10/15 00:06:46;;;;;;;558.13;194.65;;;;;;;14.26;97.10;99903.09;308803;31;3843;-74
2022/10/15 00:06:57;;;;;;;558.60;193.70;;;;;;;14.25;97.18;99904.00;306130;32;1228;-75
2022/10/15 00:07:07;;;;;;;559.63;192.07;;;;;;;14.24;96.98;99908.44;306325;31;4655;-75
2022/10/15 00:07:17;;;;;;;559.80;191.63;;;;;;;14.24;97.31;99903.16;304694;31;4607;-75
2022/10/15 00:07:28;;;;;;;560.97;196.27;;;;;;;14.23;97.45;99898.81;305247;32;868;-75
2022/10/15 00:07:40;;;;;;;560.53;196.27;;;;;;;14.23;97.25;99906.72;300407;32;4750;-75
2022/10/15 00:07:50;;;;;;;559.70;195.15;;;;;;;14.23;97.21;99897.97;300287;32;4214;-75
2022/10/15 00:08:01;;;;;;;558.72;194.00;;;;;;;14.23;97.25;99904.09;299384;32;4787;-75
2022/10/15 00:08:11;;;;;;;559.80;195.73;;;;;;;14.21;97.47;99905.09;299964;32;1358;-75
2022/10/15 00:08:22;;;;;;;560.53;196.90;;;;;;;14.22;97.38;99907.66;299020;32;3402;-75
2022/10/15 00:08:32;;;;;;;560.63;196.20;;;;;;;14.22;97.30;99902.38;299684;32;3399;-75
2022/10/15 00:08:42;;;;;;;560.27;192.93;;;;;;;14.22;97.38;99899.75;301879;32;1308;-74
2022/10/15 00:08:53;;;;;;;561.03;189.50;;;;;;;14.21;97.52;99900.69;300356;32;4545;-74
2022/10/15 00:09:03;;;;;;;563.77;191.50;;;;;;;14.23;97.27;99900.59;297113;32;5871;-74
2022/10/15 00:09:14;;;;;;;563.17;194.80;;;;;;;14.22;97.49;99899.75;296236;33;1836;-75
2022/10/15 00:09:24;;;;;;;562.37;197.17;;;;;;;14.23;97.11;99897.97;291496;33;883;-74
2022/10/15 00:09:35;;;;;;;560.50;196.32;;;;;;;14.24;97.36;99907.56;291866;33;4919;-74
2022/10/15 00:09:45;;;;;;;560.20;194.50;;;;;;;14.23;97.35;99901.47;290693;33;7052;-74
2022/10/15 00:09:55;;;;;;;560.63;194.77;;;;;;;14.23;97.35;99904.09;289314;34;1406;-74
2022/10/15 00:10:06;;;;;;;561.47;191.93;;;;;;;14.23;97.38;99898.81;287762;34;6408;-75
2022/10/15 00:10:17;;;;;;;561.83;189.88;;;;;;;14.22;96.95;99907.66;289280;33;6473;-75
2022/10/15 00:10:27;;;;;;;562.30;189.82;;;;;;;14.23;97.40;99897.97;291031;34;1222;-74
2022/10/15 00:10:37;;;;;;;561.57;191.63;;;;;;;14.23;97.34;99901.47;289197;33;4885;-74
2022/10/15 00:10:48;;;;;;;564.28;191.32;;;;;;;14.23;97.33;99897.97;285256;34;5472;-73
2022/10/15 00:11:09;;;;;;;562.83;189.50;;;;;;;14.24;97.22;99902.31;283620;34;921;-73
2022/10/15 00:11:21;;;;;;;558.20;187.38;;;;;;;14.23;97.26;99898.81;278166;34;6167;-73
2022/10/15 00:11:31;;;;;;;560.75;190.15;;;;;;;14.22;97.13;99905.03;279237;34;12476;-75
2022/10/15 00:11:42;;;;;;;566.25;195.15;;;;;;;14.24;97.26;99904.94;276724;35;2318;-76
2022/10/15 00:11:52;;;;;;;566.40;194.57;;;;;;;14.24;97.14;99908.44;275029;35;6517;-76
2022/10/15 00:12:03;;;;;;;565.25;193.85;;;;;;;14.23;97.22;99906.72;275931;35;9614;-76
2022/10/15 00:12:13;;;;;;;560.50;191.10;;;;;;;14.25;97.26;99896.97;275528;35;1324;-74
2022/10/15 00:12:24;;;;;;;560.90;192.53;;;;;;;14.22;97.03;99901.53;273469;35;7378;-74
2022/10/15 00:12:34;;;;;;;561.63;194.33;;;;;;;14.23;96.92;99898.81;274779;35;8787;-75
2022/10/15 00:12:44;;;;;;;563.07;194.17;;;;;;;14.23;97.20;99897.97;274212;35;6170;-74
2022/10/15 00:12:55;;;;;;;563.30;193.33;;;;;;;14.23;97.29;99903.25;272122;36;1326;-76
2022/10/15 00:13:05;;;;;;;563.10;193.00;;;;;;;14.24;97.17;99897.91;267550;36;7923;-75
2022/10/15 00:13:16;;;;;;;560.25;189.52;;;;;;;14.25;97.43;99904.88;266785;36;9321;-74
2022/10/15 00:13:26;;;;;;;560.83;192.50;;;;;;;14.25;96.83;99894.34;267944;36;899;-74
2022/10/15 00:15:36;;;;;;;548.56;179.14;;;;;;;14.25;97.12;99896.97;2496818;27;21058;-74
2022/10/15 00:15:47;;;;;;;558.75;187.48;;;;;;;14.23;97.05;99892.72;352953;28;937;-74
2022/10/15 00:15:57;;;;;;;560.57;188.50;;;;;;;14.22;97.36;99897.13;346655;28;1709;-74
2022/10/15 00:16:10;;;;;;;561.70;187.82;;;;;;;14.22;97.25;99891.84;347428;28;1142;-74
2022/10/15 00:16:22;;;;;;;562.33;186.95;;;;;;;14.23;97.23;99897.97;347478;28;1612;-74
2022/10/15 00:16:33;;;;;;;559.97;183.82;;;;;;;14.21;97.46;99895.41;351532;28;1410;-74
2022/10/15 00:16:43;;;;;;;558.87;184.80;;;;;;;14.22;97.29;99893.66;347535;28;1321;-74
2022/10/15 00:16:54;;;;;;;559.90;186.00;;;;;;;14.24;96.89;99889.16;348743;28;872;-74
2022/10/15 00:17:04;;;;;;;560.72;187.05;;;;;;;14.23;97.40;99893.56;348697;28;1328;-74
2022/10/15 00:17:15;;;;;;;560.23;186.83;;;;;;;14.22;97.32;99891.84;348836;28;873;-74
2022/10/15 00:17:25;;;;;;;559.42;186.93;;;;;;;14.23;97.38;99892.72;345864;28;1447;-74
2022/10/15 00:17:35;;;;;;;560.20;189.50;;;;;;;14.21;97.15;99892.78;346086;28;1279;-74
2022/10/15 00:17:46;;;;;;;562.25;189.13;;;;;;;14.19;96.95;99889.38;346871;28;884;-74
2022/10/15 00:17:57;;;;;;;561.93;188.07;;;;;;;14.19;97.31;99886.75;346035;28;914;-74
2022/10/15 00:18:07;;;;;;;561.53;185.98;;;;;;;14.19;97.24;99886.75;342735;28;1231;-74
2022/10/15 00:18:17;;;;;;;559.97;185.37;;;;;;;14.19;96.77;99894.66;343421;28;1391;-74
2022/10/15 00:18:28;;;;;;;559.67;183.35;;;;;;;14.18;97.07;99895.56;344586;28;1509;-74
2022/10/15 00:18:39;;;;;;;559.83;182.80;;;;;;;14.18;97.24;99892.94;343394;28;928;-74
2022/10/15 00:18:50;;;;;;;559.65;184.55;;;;;;;14.19;97.05;99896.44;343324;28;1318;-74
2022/10/15 00:19:01;;;;;;;560.00;186.95;;;;;;;14.18;97.12;99892.94;344575;28;1590;-74
2022/10/15 00:19:11;;;;;;;560.97;188.80;;;;;;;14.18;97.07;99890.31;345957;28;926;-74
2022/10/15 00:19:21;;;;;;;562.53;188.85;;;;;;;14.19;97.19;99891.16;344670;28;1236;-74
2022/10/15 00:19:32;;;;;;;562.57;188.30;;;;;;;14.21;96.97;99895.41;345985;28;978;-74
2022/10/15 00:19:42;;;;;;;561.65;186.40;;;;;;;14.20;96.72;99892.88;345835;28;1220;-74
2022/10/15 00:19:53;;;;;;;560.13;185.97;;;;;;;14.21;97.07;99894.56;344545;28;1052;-74
2022/10/15 00:20:05;;;;;;;558.55;186.13;;;;;;;14.21;97.28;99889.31;343180;28;984;-74
2022/10/15 00:20:16;;;;;;;556.90;184.73;;;;;;;14.21;97.13;99890.16;344818;28;1269;-74
2022/10/15 00:20:26;;;;;;;557.53;186.90;;;;;;;14.22;97.23;99891.84;345522;28;1798;-74
2022/10/15 00:20:40;;;;;;;558.03;188.60;;;;;;;14.23;97.08;99893.56;341707;28;3748;-74
2022/10/15 00:20:50;;;;;;;558.48;191.00;;;;;;;14.22;96.92;99886.59;345394;28;1688;-74
2022/10/15 00:21:01;;;;;;;559.30;191.73;;;;;;;14.21;97.19;99895.41;345385;28;1861;-74
2022/10/15 00:21:13;;;;;;;559.53;191.27;;;;;;;14.21;97.20;99889.31;345758;28;3441;-74
2022/10/15 00:21:24;;;;;;;558.35;188.65;;;;;;;14.19;97.33;99891.16;345994;28;849;-74
2022/10/15 00:21:34;;;;;;;556.70;186.80;;;;;;;14.19;97.34;99892.00;344640;28;1181;-74
2022/10/15 00:21:45;;;;;;;557.67;186.03;;;;;;;14.19;97.38;99889.38;344364;28;1312;-74
2022/10/15 00:21:55;;;;;;;558.83;185.88;;;;;;;14.18;97.15;99890.31;344293;28;1944;-74
2022/10/15 00:22:06;;;;;;;557.87;184.43;;;;;;;14.17;97.20;99888.59;344701;28;1678;-75
2022/10/15 00:22:16;;;;;;;559.08;185.45;;;;;;;14.17;96.87;99885.97;341409;28;1145;-75
2022/10/15 00:22:26;;;;;;;559.87;187.83;;;;;;;14.15;97.01;99892.25;342086;28;1134;-75
2022/10/15 00:22:37;;;;;;;558.83;186.70;;;;;;;14.17;97.19;99893.03;342189;28;1472;-75
2022/10/15 00:22:47;;;;;;;559.67;187.87;;;;;;;14.18;97.51;99889.47;338061;29;909;-75
2022/10/15 00:22:58;;;;;;;558.75;188.43;;;;;;;14.16;97.40;99892.16;339265;29;1190;-75
2022/10/15 00:23:08;;;;;;;560.33;188.90;;;;;;;14.17;97.21;99887.75;340559;29;1422;-74
2022/10/15 00:23:18;;;;;;;558.43;187.53;;;;;;;14.18;97.19;99887.69;342942;28;998;-74
2022/10/15 00:23:29;;;;;;;562.17;188.15;;;;;;;14.19;97.21;99892.00;340935;28;1424;-74
2022/10/15 00:23:40;;;;;;;562.30;188.70;;;;;;;14.19;97.39;99892.00;343116;28;1224;-74
2022/10/15 00:23:50;;;;;;;561.20;187.00;;;;;;;14.19;97.51;99892.00;343412;28;848;-74
2022/10/15 00:24:01;;;;;;;559.50;186.10;;;;;;;14.17;97.26;99888.59;342118;28;1660;-73
2022/10/15 00:24:11;;;;;;;558.95;185.80;;;;;;;14.16;97.43;99894.81;342109;28;1576;-74
2022/10/15 00:24:22;;;;;;;560.33;187.73;;;;;;;14.15;97.58;99884.34;341953;28;1075;-73
2022/10/15 00:24:32;;;;;;;559.60;187.77;;;;;;;14.15;97.41;99893.09;337870;29;1999;-74
2022/10/15 00:24:42;;;;;;;558.47;185.77;;;;;;;14.15;97.38;99886.97;338663;29;945;-73
2022/10/15 00:24:53;;;;;;;557.90;184.97;;;;;;;14.14;97.43;99886.13;339458;29;1967;-73
2022/10/15 00:25:04;;;;;;;558.25;183.75;;;;;;;14.15;97.60;99885.19;341639;28;1444;-75
2022/10/15 00:25:14;;;;;;;559.28;183.68;;;;;;;14.17;97.46;99879.88;341117;28;996;-74
2022/10/15 00:25:24;;;;;;;560.30;184.47;;;;;;;14.18;97.68;99879.78;342014;28;1872;-73
2022/10/15 00:25:35;;;;;;;560.35;185.95;;;;;;;14.17;97.39;99885.13;334036;29;2388;-73
2022/10/15 00:25:45;;;;;;;561.60;187.73;;;;;;;14.18;97.28;99885.03;333770;29;1758;-74
2022/10/15 00:26:06;;;;;;;561.93;188.07;;;;;;;14.20;97.36;99887.59;334271;29;1869;-74
2022/10/15 00:26:19;;;;;;;559.65;186.32;;;;;;;14.18;97.82;99886.81;335361;29;2031;-73
2022/10/15 00:26:29;;;;;;;559.65;186.68;;;;;;;14.18;97.33;99887.69;332650;29;2303;-73
2022/10/15 00:26:39;;;;;;;558.60;185.75;;;;;;;14.17;97.40;99888.59;330287;29;1612;-74
2022/10/15 00:26:50;;;;;;;558.07;186.00;;;;;;;14.17;97.48;99883.34;328023;30;916;-73
2022/10/15 00:27:00;;;;;;;558.78;184.75;;;;;;;14.17;97.50;99887.75;327798;30;1171;-73
2022/10/15 00:27:11;;;;;;;560.97;186.70;;;;;;;14.16;97.33;99881.63;328995;29;1355;-73
2022/10/15 00:27:21;;;;;;;560.13;185.98;;;;;;;14.18;97.28;99879.78;327772;30;1443;-74
2022/10/15 00:27:32;;;;;;;558.60;185.30;;;;;;;14.16;97.16;99881.63;326726;30;1551;-74
2022/10/15 00:27:43;;;;;;;557.80;185.80;;;;;;;14.15;97.17;99885.19;326608;30;1981;-73
2022/10/15 00:27:53;;;;;;;560.20;186.90;;;;;;;14.16;97.41;99886.91;328002;30;1276;-73
2022/10/15 00:28:04;;;;;;;560.63;186.50;;;;;;;14.17;97.32;99878.09;322686;30;2297;-73
2022/10/15 00:28:14;;;;;;;560.80;185.40;;;;;;;14.18;97.12;99878.94;321756;30;2472;-74
2022/10/15 00:28:24;;;;;;;559.53;185.25;;;;;;;14.19;97.62;99886.75;322005;30;805;-73
2022/10/15 00:28:35;;;;;;;560.97;187.00;;;;;;;14.18;97.53;99881.56;314002;31;1073;-73
2022/10/15 00:28:46;;;;;;;560.73;185.53;;;;;;;14.17;97.45;99880.72;309646;31;2824;-73
2022/10/15 00:28:58;;;;;;;559.35;183.85;;;;;;;14.17;97.67;99883.34;309461;31;1794;-73
2022/10/15 00:29:08;;;;;;;558.70;183.88;;;;;;;14.18;97.77;99884.19;308374;31;1368;-73
2022/10/15 00:29:18;;;;;;;558.65;185.30;;;;;;;14.18;97.48;99890.31;309197;31;1370;-73
2022/10/15 00:29:29;;;;;;;559.30;185.40;;;;;;;14.17;97.38;99880.72;309888;31;1820;-73
2022/10/15 00:29:39;;;;;;;558.63;185.07;;;;;;;14.17;97.51;99883.34;309489;31;1313;-73
2022/10/15 00:29:50;;;;;;;559.47;186.50;;;;;;;14.17;97.43;99883.34;306135;32;3305;-74
2022/10/15 00:30:02;;;;;;;559.70;188.30;;;;;;;14.17;97.48;99883.34;306326;32;3266;-74
2022/10/15 00:30:12;;;;;;;564.70;190.90;;;;;;;14.18;97.53;99879.78;304907;32;3580;-74
2022/10/15 00:30:22;;;;;;;565.10;190.63;;;;;;;14.19;97.57;99875.38;303023;32;2715;-74
2022/10/15 00:30:33;;;;;;;566.08;190.02;;;;;;;14.18;97.38;99885.03;302467;32;3341;-74
2022/10/15 00:30:43;;;;;;;562.07;189.63;;;;;;;14.20;97.38;99887.59;301182;32;3673;-74
2022/10/15 00:30:59;;;;;;;561.92;188.15;;;;;;;14.19;97.69;99880.63;301761;32;1402;-74
2022/10/15 00:31:11;;;;;;;563.15;187.50;;;;;;;14.19;97.36;99886.75;297997;33;885;-74
2022/10/15 00:31:23;;;;;;;562.63;187.15;;;;;;;14.20;97.36;99883.19;298386;33;1600;-74
2022/10/15 00:31:33;;;;;;;560.70;187.52;;;;;;;14.19;97.27;99878.00;295681;32;2087;-74
2022/10/15 00:31:44;;;;;;;559.40;186.30;;;;;;;14.19;97.53;99881.50;292594;33;2791;-74
2022/10/15 00:31:54;;;;;;;558.30;184.27;;;;;;;14.19;97.58;99886.75;291208;33;1356;-74
2022/10/15 00:32:05;;;;;;;558.65;184.18;;;;;;;14.19;97.49;99891.16;289333;33;3823;-74
2022/10/15 00:32:15;;;;;;;559.13;185.38;;;;;;;14.19;97.37;99881.50;287626;33;4064;-74
2022/10/15 00:32:26;;;;;;;559.53;186.53;;;;;;;14.20;97.43;99888.44;285818;34;4423;-74
2022/10/15 00:32:36;;;;;;;561.88;189.60;;;;;;;14.19;97.48;99880.63;289137;34;1200;-75
2022/10/15 00:32:47;;;;;;;562.40;190.43;;;;;;;14.16;97.42;99886.91;286630;34;4117;-75
2022/10/15 00:32:57;;;;;;;562.53;188.50;;;;;;;14.16;97.68;99889.53;287468;34;4901;-75
2022/10/15 00:33:08;;;;;;;561.47;186.17;;;;;;;14.16;97.65;99881.63;287552;34;821;-74
2022/10/15 00:33:18;;;;;;;561.92;185.73;;;;;;;14.18;98.02;99878.94;284103;34;5015;-74
2022/10/15 00:33:28;;;;;;;562.80;186.67;;;;;;;14.18;97.57;99881.56;285081;34;3742;-74
2022/10/15 00:33:39;;;;;;;562.88;188.20;;;;;;;14.18;97.61;99885.03;286694;34;1431;-74
2022/10/15 00:33:50;;;;;;;563.93;189.63;;;;;;;14.18;97.51;99879.78;283175;34;3253;-74
2022/10/15 00:34:01;;;;;;;565.30;190.48;;;;;;;14.19;97.64;99880.63;281319;34;4349;-74
2022/10/15 00:34:11;;;;;;;564.50;188.65;;;;;;;14.19;97.54;99885.91;280122;35;5298;-74
2022/10/15 00:34:22;;;;;;;562.90;188.70;;;;;;;14.17;97.38;99883.34;279555;35;1046;-74
2022/10/15 00:34:32;;;;;;;560.92;189.75;;;;;;;14.18;97.68;99879.78;279992;35;6324;-74
2022/10/15 00:34:43;;;;;;;560.57;188.63;;;;;;;14.18;97.88;99884.19;280829;35;7600;-75
2022/10/15 00:34:53;;;;;;;561.42;188.23;;;;;;;14.18;98.00;99877.16;278497;35;1553;-74
2022/10/15 00:35:04;;;;;;;560.33;184.67;;;;;;;14.18;97.86;99881.56;272823;35;5488;-75
2022/10/15 00:35:14;;;;;;;560.10;184.23;;;;;;;14.17;97.62;99883.34;275524;35;6417;-74
2022/10/15 00:35:25;;;;;;;558.90;184.90;;;;;;;14.17;97.69;99880.72;278200;35;1292;-74
2022/10/15 00:35:35;;;;;;;561.27;187.97;;;;;;;14.19;97.62;99883.25;269958;36;1795;-74
2022/10/15 00:35:45;;;;;;;563.83;190.50;;;;;;;14.17;97.66;99883.34;269942;36;4142;-74
2022/10/15 00:36:00;;;;;;;564.55;189.27;;;;;;;14.18;97.67;99878.94;268043;36;5415;-74
2022/10/15 00:36:13;;;;;;;560.20;185.43;;;;;;;14.13;97.57;99876.53;265719;37;6792;-74
2022/10/15 00:36:28;;;;;;;558.90;184.98;;;;;;;14.13;97.84;99887.06;262690;37;1329;-74
2022/10/15 00:36:38;;;;;;;559.90;184.90;;;;;;;14.12;97.89;99885.34;262830;37;985;-74
2022/10/15 00:36:49;;;;;;;559.70;184.30;;;;;;;14.12;97.79;99885.34;261564;37;8849;-74
2022/10/15 00:36:59;;;;;;;559.45;185.93;;;;;;;14.12;97.94;99879.25;261064;37;8842;-74
2022/10/15 00:37:10;;;;;;;560.60;187.80;;;;;;;14.11;97.81;99883.66;261899;37;1340;-74
2022/10/15 00:37:21;;;;;;;564.97;186.82;;;;;;;14.11;97.68;99883.66;261411;37;1180;-74
2022/10/15 00:37:31;;;;;;;564.78;184.15;;;;;;;14.11;98.01;99883.66;259594;37;11168;-74
2022/10/15 00:39:32;;;;;;;547.97;173.69;;;;;;;14.11;97.46;99872.28;2496561;27;20479;-75
2022/10/15 00:39:42;;;;;;;562.83;182.67;;;;;;;14.11;97.35;99878.38;351379;28;1318;-74
2022/10/15 00:39:53;;;;;;;560.15;181.30;;;;;;;14.12;97.46;99877.47;348283;28;1511;-74
2022/10/15 00:40:04;;;;;;;561.30;181.65;;;;;;;14.11;97.59;99883.66;348079;28;1278;-74
2022/10/15 00:40:14;;;;;;;561.20;183.52;;;;;;;14.10;97.54;99879.31;347413;28;1215;-74
2022/10/15 00:40:25;;;;;;;561.63;182.90;;;;;;;14.12;97.62;99882.72;347544;28;809;-74
2022/10/15 00:40:35;;;;;;;561.35;184.30;;;;;;;14.12;97.76;99884.50;347415;28;1508;-74
2022/10/15 00:40:45;;;;;;;561.07;182.53;;;;;;;14.12;97.64;99882.72;348697;28;1496;-74
2022/10/15 00:40:56;;;;;;;560.80;180.63;;;;;;;14.12;97.67;99872.19;347982;28;1207;-74
2022/10/15 00:41:07;;;;;;;562.10;181.53;;;;;;;14.12;97.86;99882.72;348471;28;1831;-74
2022/10/15 00:41:22;;;;;;;562.42;183.35;;;;;;;14.11;97.77;99886.28;350060;28;1211;-74
2022/10/15 00:41:35;;;;;;;565.97;186.05;;;;;;;14.12;97.73;99880.09;348769;28;1089;-74
2022/10/15 00:41:45;;;;;;;565.70;185.82;;;;;;;14.13;97.42;99881.78;350022;28;1363;-75
2022/10/15 00:41:56;;;;;;;563.83;184.65;;;;;;;14.12;97.88;99872.19;350074;28;1322;-75
2022/10/15 00:42:06;;;;;;;561.30;179.97;;;;;;;14.13;97.61;99873.91;350031;28;858;-74
2022/10/15 00:42:16;;;;;;;559.83;178.25;;;;;;;14.14;97.47;99882.66;348743;28;1275;-74
2022/10/15 00:42:27;;;;;;;559.37;178.57;;;;;;;14.14;97.57;99872.97;348558;28;1390;-74
2022/10/15 00:42:37;;;;;;;558.22;178.38;;;;;;;14.15;97.57;99879.09;348259;28;2225;-74
2022/10/15 00:42:47;;;;;;;559.37;179.13;;;;;;;14.15;97.66;99879.09;347287;28;1566;-74
2022/10/15 00:42:58;;;;;;;559.97;179.27;;;;;;;14.13;97.88;99881.78;347284;28;1954;-74
2022/10/15 00:43:10;;;;;;;561.03;181.03;;;;;;;14.10;97.59;99876.69;346008;28;1003;-74
2022/10/15 00:43:38;;;;;;;561.05;182.32;;;;;;;14.11;97.75;99881.03;346276;28;1849;-74
2022/10/15 00:43:50;;;;;;;558.75;180.23;;;;;;;14.12;97.20;99884.50;344652;28;939;-74
2022/10/15 00:44:21;;;;;;;559.20;182.95;;;;;;;14.13;97.59;99876.53;345979;28;1526;-74
2022/10/15 00:44:49;;;;;;;559.45;181.63;;;;;;;14.16;97.43;99881.63;345983;28;982;-74
2022/10/15 00:45:00;;;;;;;559.05;180.63;;;;;;;14.17;97.56;99880.72;347944;28;990;-74
2022/10/15 00:45:13;;;;;;;560.83;182.00;;;;;;;14.17;97.61;99883.34;347217;28;897;-74
2022/10/15 00:45:23;;;;;;;560.10;180.27;;;;;;;14.18;97.59;99879.78;345581;28;1597;-74
2022/10/15 00:45:33;;;;;;;561.50;184.55;;;;;;;14.18;97.96;99877.16;343232;28;2004;-74
2022/10/15 00:45:44;;;;;;;561.07;184.20;;;;;;;14.17;97.62;99878.09;344728;28;1368;-74
2022/10/15 00:45:54;;;;;;;561.90;187.75;;;;;;;14.17;97.83;99872.81;345430;28;1427;-74
2022/10/15 00:46:05;;;;;;;560.47;185.47;;;;;;;14.16;97.38;99881.63;347479;28;1111;-74
2022/10/15 00:46:34;;;;;;;558.80;184.55;;;;;;;14.16;97.71;99870.25;339391;29;905;-74
2022/10/15 00:46:45;;;;;;;556.13;179.13;;;;;;;14.15;97.69;99876.47;339263;29;681;-74
2022/10/15 00:47:06;;;;;;;556.67;180.07;;;;;;;14.15;97.67;99873.81;339225;29;1239;-74
2022/10/15 00:47:21;;;;;;;559.24;179.10;;;;;;;14.15;97.45;99877.31;337949;29;1317;-74
2022/10/15 00:47:38;;;;;;;561.42;180.05;;;;;;;14.15;97.65;99874.69;336610;29;1542;-74
2022/10/15 00:47:48;;;;;;;559.80;184.18;;;;;;;14.15;97.53;99879.09;334182;29;863;-74
2022/10/15 00:47:59;;;;;;;557.60;180.97;;;;;;;14.15;97.47;99874.69;335977;29;1381;-74
2022/10/15 00:48:09;;;;;;;559.78;183.15;;;;;;;14.15;97.59;99874.69;331472;29;4084;-75
2022/10/15 00:48:19;;;;;;;562.50;185.27;;;;;;;14.14;97.44;99867.72;333910;29;3521;-75
2022/10/15 00:48:30;;;;;;;563.80;189.75;;;;;;;14.14;97.58;99875.59;331412;29;1701;-74
2022/10/15 00:48:40;;;;;;;562.10;189.47;;;;;;;14.13;97.69;99876.53;332229;29;1948;-74
2022/10/15 00:48:59;;;;;;;563.42;188.57;;;;;;;14.16;97.82;99884.28;331543;29;3311;-74
2022/10/15 00:49:34;;;;;;;562.05;180.38;;;;;;;14.14;97.40;99877.38;330850;29;1768;-74
2022/10/15 00:49:47;;;;;;;560.53;185.10;;;;;;;14.14;97.64;99874.75;327475;29;1681;-74
2022/10/15 00:50:02;;;;;;;561.78;184.15;;;;;;;14.14;98.05;99877.38;327805;29;1875;-74
2022/10/15 00:50:19;;;;;;;559.83;179.35;;;;;;;14.13;97.53;99879.16;327760;29;2122;-74
2022/10/15 00:50:30;;;;;;;557.72;175.82;;;;;;;14.13;97.52;99876.53;327582;30;2626;-74
2022/10/15 00:50:40;;;;;;;558.67;178.52;;;;;;;14.13;97.59;99870.41;327198;30;1762;-74
2022/10/15 00:50:51;;;;;;;559.63;181.90;;;;;;;14.11;97.92;99872.28;326667;30;939;-74
2022/10/15 00:51:01;;;;;;;559.58;181.95;;;;;;;14.10;97.56;99870.56;325560;30;871;-74
2022/10/15 00:51:11;;;;;;;560.37;183.03;;;;;;;14.08;97.88;99873.28;326459;30;1808;-74
2022/10/15 00:51:22;;;;;;;561.40;185.95;;;;;;;14.07;98.03;99879.47;326637;30;1865;-74
2022/10/15 00:51:36;;;;;;;561.90;187.90;;;;;;;14.07;97.80;99876.84;324647;30;1373;-74
2022/10/15 00:51:48;;;;;;;561.00;186.32;;;;;;;14.08;97.87;99875.91;319665;30;849;-74
2022/10/15 00:52:04;;;;;;;558.65;181.90;;;;;;;14.07;98.12;99868.94;322268;30;2184;-74
2022/10/15 00:52:40;;;;;;;559.33;183.48;;;;;;;14.11;97.91;99877.53;323635;30;2684;-74
2022/10/15 00:53:09;;;;;;;558.17;178.80;;;;;;;14.10;97.89;99876.69;318849;30;1903;-74
2022/10/15 00:53:19;;;;;;;559.83;185.75;;;;;;;14.09;97.69;99869.72;311457;31;1296;-74
2022/10/15 00:53:29;;;;;;;560.70;185.63;;;;;;;14.10;97.92;99878.47;310904;31;2127;-74
2022/10/15 00:53:40;;;;;;;560.13;183.43;;;;;;;14.11;97.73;99877.53;309364;31;2696;-74
2022/10/15 00:53:50;;;;;;;559.10;181.47;;;;;;;14.10;97.69;99871.44;306333;32;872;-74
2022/10/15 00:54:01;;;;;;;559.17;180.30;;;;;;;14.10;97.71;99865.31;305215;32;1449;-74
2022/10/15 00:54:11;;;;;;;559.83;182.80;;;;;;;14.10;97.64;99871.44;303045;32;3244;-74
2022/10/15 00:54:21;;;;;;;559.70;182.13;;;;;;;14.10;97.63;99870.56;302903;32;3466;-74
2022/10/15 00:54:35;;;;;;;559.90;182.63;;;;;;;14.11;97.65;99875.75;305159;32;1398;-76
2022/10/15 00:54:50;;;;;;;560.53;182.77;;;;;;;14.12;97.61;99869.56;307735;32;3844;-75
2022/10/15 00:55:39;;;;;;;560.15;186.23;;;;;;;14.14;97.92;99875.59;303480;32;3476;-75
2022/10/15 00:55:50;;;;;;;559.50;182.15;;;;;;;14.14;97.76;99872.97;301734;32;1172;-74
2022/10/15 00:56:00;;;;;;;559.67;185.00;;;;;;;14.14;97.56;99874.75;303680;32;4028;-74
2022/10/15 00:56:11;;;;;;;562.10;189.60;;;;;;;14.14;97.87;99870.34;304336;31;4033;-74
2022/10/15 00:56:21;;;;;;;560.45;186.15;;;;;;;14.13;97.82;99866.00;304500;32;4185;-75
2022/10/15 00:56:32;;;;;;;558.95;182.82;;;;;;;14.13;97.99;99868.63;300946;32;1245;-75
2022/10/15 00:56:42;;;;;;;559.10;181.83;;;;;;;14.12;97.83;99874.84;300694;32;4530;-75
2022/10/15 00:56:53;;;;;;;561.10;184.18;;;;;;;14.13;97.97;99871.28;301159;32;4680;-75
2022/10/15 00:57:04;;;;;;;561.50;183.67;;;;;;;14.14;97.89;99870.34;303138;32;918;-75
2022/10/15 00:57:14;;;;;;;560.75;183.23;;;;;;;14.15;98.17;99871.19;299923;32;4770;-75
2022/10/15 00:57:25;;;;;;;560.92;183.43;;;;;;;14.14;97.93;99865.06;298576;32;4320;-75
2022/10/15 00:57:35;;;;;;;563.37;188.50;;;;;;;14.13;97.75;99868.63;299172;32;3205;-75
2022/10/15 00:57:46;;;;;;;567.03;191.70;;;;;;;14.15;97.90;99872.03;298526;32;3609;-74